Time;durP1;ratioP1;P1;durP2;ratioP2;P2;SDS_P1;SDS_P2;PMS_P1;PMS_P2;Temp;Humidity;BMP_temperature;BMP_pressure;BME280_temperature;BME280_humidity;BME280_pressure;Samples;Min_cycle;Max_cycle;Signal;HPM_P1;HPM_P2
2023/01/01 00:00:12;;;;;;;41.33;33.30;;;13.40;99.90;;;;;;5008903;28;20121;-39
2023/01/01 00:02:37;;;;;;;39.78;27.23;;;13.30;99.90;;;;;;5027360;28;20029;-39
2023/01/01 00:05:05;;;;;;;43.80;33.75;;;13.20;99.90;;;;;;5010643;28;20108;-39
2023/01/01 00:07:31;;;;;;;35.47;27.27;;;13.10;99.90;;;;;;5003262;28;20038;-39
2023/01/01 00:12:40;;;;;;;35.17;25.50;;;13.00;99.90;;;;;;5015275;28;20385;-39
2023/01/01 00:15:07;;;;;;;40.00;29.73;;;13.00;99.90;;;;;;5013504;28;20092;-39
2023/01/01 00:17:33;;;;;;;74.03;50.95;;;13.00;99.90;;;;;;5018624;28;20105;-39
2023/01/01 00:19:59;;;;;;;57.42;40.28;;;13.00;99.90;;;;;;4998618;28;20117;-39
2023/01/01 00:22:25;;;;;;;46.40;34.65;;;13.10;99.90;;;;;;4990935;28;20049;-39
2023/01/01 00:24:51;;;;;;;41.83;33.22;;;13.10;99.90;;;;;;5008755;28;20045;-39
2023/01/01 00:27:17;;;;;;;39.88;28.73;;;13.10;99.90;;;;;;5016596;28;20085;-39
2023/01/01 00:29:43;;;;;;;43.33;32.58;;;13.00;99.90;;;;;;5008066;28;20070;-39
2023/01/01 00:32:11;;;;;;;42.53;30.45;;;13.10;99.90;;;;;;5006588;28;20887;-39
2023/01/01 00:34:37;;;;;;;39.42;28.55;;;13.10;99.90;;;;;;4993666;28;20462;-39
2023/01/01 00:37:02;;;;;;;43.03;31.67;;;13.10;99.90;;;;;;5011928;28;20517;-39
2023/01/01 00:39:28;;;;;;;41.63;32.03;;;13.00;99.90;;;;;;5008524;28;20113;-39
2023/01/01 00:41:54;;;;;;;38.22;27.52;;;13.10;99.90;;;;;;5001115;28;20033;-39
2023/01/01 00:44:20;;;;;;;38.53;29.23;;;13.00;99.90;;;;;;5020380;28;20416;-39
2023/01/01 00:46:46;;;;;;;35.00;26.23;;;13.00;99.90;;;;;;4995551;28;20183;-39
2023/01/01 00:49:12;;;;;;;37.03;27.42;;;13.10;99.90;;;;;;4998061;28;20177;-39
2023/01/01 00:51:38;;;;;;;33.83;25.77;;;13.10;99.90;;;;;;4995924;28;20042;-39
2023/01/01 00:54:04;;;;;;;41.42;29.55;;;13.20;99.90;;;;;;4995608;28;20043;-39
2023/01/01 00:56:29;;;;;;;32.13;23.20;;;13.10;99.90;;;;;;5007358;28;20491;-39
2023/01/01 00:58:55;;;;;;;30.33;23.65;;;13.10;99.90;;;;;;5000140;28;20507;-39
2023/01/01 01:01:21;;;;;;;33.38;24.45;;;13.10;99.90;;;;;;5011973;28;20030;-39
2023/01/01 01:03:46;;;;;;;28.83;22.52;;;13.10;99.90;;;;;;5005604;28;20071;-39
2023/01/01 01:06:15;;;;;;;27.55;20.08;;;13.10;99.90;;;;;;5004057;28;20483;-39
2023/01/01 01:08:43;;;;;;;28.75;19.50;;;13.20;99.90;;;;;;5000307;28;20136;-39
2023/01/01 01:11:15;;;;;;;26.42;20.30;;;13.30;99.90;;;;;;5024256;28;20042;-39
2023/01/01 01:13:43;;;;;;;27.52;19.77;;;13.30;99.90;;;;;;5009931;28;20044;-39
2023/01/01 01:16:18;;;;;;;28.48;19.10;;;13.20;99.90;;;;;;5001424;28;20526;-39
2023/01/01 01:18:45;;;;;;;23.67;17.25;;;13.10;99.90;;;;;;5003879;28;20476;-39
2023/01/01 01:21:15;;;;;;;24.10;16.60;;;13.20;99.90;;;;;;5012241;28;20034;-39
2023/01/01 01:23:41;;;;;;;25.83;17.20;;;13.30;99.90;;;;;;5008813;28;20044;-39
2023/01/01 01:26:13;;;;;;;24.88;17.02;;;13.30;99.90;;;;;;4985621;28;20046;-39
2023/01/01 01:28:39;;;;;;;29.27;17.23;;;13.30;99.90;;;;;;5013249;28;20076;-40
2023/01/01 01:31:05;;;;;;;23.05;18.13;;;13.30;99.90;;;;;;4984043;28;20110;-39
2023/01/01 01:33:30;;;;;;;22.02;17.63;;;13.30;99.90;;;;;;5007548;28;20056;-39
2023/01/01 01:35:56;;;;;;;26.85;19.73;;;13.30;99.90;;;;;;5003311;28;20038;-39
2023/01/01 01:38:22;;;;;;;29.38;18.65;;;13.30;99.90;;;;;;5009116;28;20034;-39
2023/01/01 01:40:48;;;;;;;26.58;17.73;;;13.40;99.90;;;;;;4998466;28;20487;-39
2023/01/01 01:43:37;;;;;;;26.73;18.55;;;13.40;99.90;;;;;;5005389;28;20113;-39
2023/01/01 01:46:19;;;;;;;25.80;20.08;;;13.40;99.90;;;;;;5012056;28;20065;-39
2023/01/01 01:48:48;;;;;;;33.10;21.50;;;13.30;99.90;;;;;;4995873;28;20122;-39
2023/01/01 01:51:21;;;;;;;31.23;22.75;;;13.20;99.90;;;;;;5005805;28;20034;-39
2023/01/01 01:53:56;;;;;;;29.77;20.90;;;13.20;99.90;;;;;;4998721;28;20046;-39
2023/01/01 01:56:31;;;;;;;26.42;21.73;;;13.10;99.90;;;;;;5000748;28;20479;-39
2023/01/01 01:58:57;;;;;;;31.67;23.38;;;13.10;99.90;;;;;;5012954;28;20046;-39
2023/01/01 02:01:24;;;;;;;27.73;19.65;;;13.00;99.90;;;;;;5020226;28;20084;-39
2023/01/01 02:03:58;;;;;;;31.27;23.90;;;13.10;99.90;;;;;;5014304;28;20075;-39
2023/01/01 02:06:29;;;;;;;34.92;22.55;;;13.20;99.90;;;;;;5012061;28;20038;-39
2023/01/01 02:08:57;;;;;;;32.33;21.15;;;13.10;99.90;;;;;;5006892;28;20038;-39
2023/01/01 02:11:23;;;;;;;29.75;22.08;;;13.10;99.90;;;;;;5013391;28;20030;-39
2023/01/01 02:13:51;;;;;;;32.17;22.55;;;13.10;99.90;;;;;;5013184;28;20104;-39
2023/01/01 02:16:21;;;;;;;28.45;21.45;;;13.10;99.90;;;;;;5008845;28;20445;-39
2023/01/01 02:18:53;;;;;;;27.40;20.38;;;13.00;99.90;;;;;;5020681;28;20069;-39
2023/01/01 02:21:43;;;;;;;35.90;22.65;;;13.00;99.90;;;;;;5013636;28;20041;-39
2023/01/01 02:24:57;;;;;;;34.17;23.42;;;13.00;99.90;;;;;;5006105;28;20046;-39
2023/01/01 02:27:45;;;;;;;29.70;21.65;;;12.90;99.90;;;;;;4978308;28;20065;-39
2023/01/01 02:30:11;;;;;;;32.08;20.05;;;12.90;99.90;;;;;;5027036;28;20449;-39
2023/01/01 02:32:40;;;;;;;25.80;17.45;;;12.90;99.90;;;;;;5003357;28;20468;-39
2023/01/01 02:35:41;;;;;;;22.95;17.20;;;12.90;99.90;;;;;;5012189;28;20077;-39
2023/01/01 02:38:28;;;;;;;22.60;15.45;;;12.90;99.90;;;;;;5024369;28;20043;-39
2023/01/01 02:41:01;;;;;;;18.05;13.07;;;12.90;99.90;;;;;;5018169;28;20038;-39
2023/01/01 02:43:27;;;;;;;23.42;12.27;;;12.90;99.90;;;;;;5005119;28;20045;-39
2023/01/01 02:45:54;;;;;;;19.58;12.30;;;13.00;99.90;;;;;;5009066;28;20483;-39
2023/01/01 02:48:49;;;;;;;18.30;11.23;;;13.00;99.90;;;;;;5002955;28;20103;-39
2023/01/01 02:51:33;;;;;;;13.60;9.23;;;13.10;99.90;;;;;;5015104;28;20030;-38
2023/01/01 02:54:09;;;;;;;15.13;10.00;;;13.10;99.90;;;;;;5004260;28;20056;-39
2023/01/01 02:57:14;;;;;;;16.45;9.48;;;13.10;99.90;;;;;;5012894;28;20030;-39
2023/01/01 03:03:26;;;;;;;16.60;9.32;;;13.20;99.90;;;;;;4985337;28;20054;-38
2023/01/01 03:09:04;;;;;;;11.50;7.18;;;13.30;99.90;;;;;;5013535;28;20079;-39
2023/01/01 03:11:58;;;;;;;13.20;6.25;;;13.30;99.90;;;;;;5009568;28;20069;-39
2023/01/01 03:14:37;;;;;;;10.18;6.15;;;13.30;99.90;;;;;;5026986;28;20371;-39
2023/01/01 03:17:25;;;;;;;10.27;5.13;;;13.40;99.90;;;;;;5019380;28;20497;-39
2023/01/01 03:19:56;;;;;;;16.65;6.70;;;13.40;99.90;;;;;;5033968;28;20060;-39
2023/01/01 03:22:30;;;;;;;10.80;5.10;;;13.50;99.90;;;;;;5028676;28;20034;-39
2023/01/01 03:25:06;;;;;;;14.73;6.57;;;13.50;99.90;;;;;;5004960;28;20052;-39
2023/01/01 03:27:46;;;;;;;9.27;4.72;;;13.50;99.90;;;;;;5021994;28;20045;-39
2023/01/01 03:30:14;;;;;;;8.93;5.07;;;13.50;99.90;;;;;;4999974;28;20053;-39
2023/01/01 03:33:02;;;;;;;13.77;5.32;;;13.50;99.90;;;;;;5000470;28;20066;-39
2023/01/01 03:35:48;;;;;;;11.55;4.25;;;13.60;99.90;;;;;;5005875;28;20041;-39
2023/01/01 03:38:55;;;;;;;14.23;5.07;;;13.60;99.90;;;;;;5006902;28;20038;-39
2023/01/01 03:41:39;;;;;;;12.57;5.70;;;13.70;99.90;;;;;;4995740;28;20049;-38
2023/01/01 03:44:29;;;;;;;9.75;5.35;;;13.70;99.90;;;;;;5001287;28;20045;-39
2023/01/01 03:46:55;;;;;;;15.07;7.95;;;13.70;99.90;;;;;;4995273;28;20053;-39
2023/01/01 03:49:22;;;;;;;7.10;3.20;;;13.70;99.90;;;;;;5014133;28;20041;-39
2023/01/01 03:51:50;;;;;;;10.15;4.30;;;13.60;99.90;;;;;;5007741;28;20539;-39
2023/01/01 03:54:19;;;;;;;8.30;4.43;;;13.60;99.90;;;;;;5008081;28;20113;-39
2023/01/01 03:56:50;;;;;;;13.48;4.65;;;13.60;99.90;;;;;;5005026;28;20042;-39
2023/01/01 03:59:23;;;;;;;6.50;3.60;;;13.60;99.90;;;;;;5008086;28;20065;-39
2023/01/01 04:01:55;;;;;;;5.63;2.87;;;13.70;99.90;;;;;;5019302;28;20056;-39
2023/01/01 04:04:22;;;;;;;7.32;4.28;;;13.70;99.90;;;;;;5006609;28;20033;-39
2023/01/01 04:06:48;;;;;;;8.77;3.95;;;13.70;99.90;;;;;;5013411;28;20092;-39
2023/01/01 04:09:20;;;;;;;8.45;3.88;;;13.70;99.90;;;;;;5003617;28;20038;-39
2023/01/01 04:12:06;;;;;;;6.95;2.92;;;13.60;99.90;;;;;;5021756;28;20037;-38
2023/01/01 04:14:34;;;;;;;7.90;3.05;;;13.70;99.90;;;;;;5003449;28;20047;-39
2023/01/01 04:17:01;;;;;;;6.00;2.67;;;13.70;99.90;;;;;;5005585;28;20049;-39
2023/01/01 04:19:27;;;;;;;6.57;3.10;;;13.70;99.90;;;;;;5018638;28;20041;-39
2023/01/01 04:21:53;;;;;;;9.50;3.20;;;13.70;99.90;;;;;;5000538;28;20046;-39
2023/01/01 04:24:19;;;;;;;6.15;2.78;;;13.70;99.90;;;;;;4998647;28;20379;-39
2023/01/01 04:26:44;;;;;;;10.13;3.20;;;13.60;99.90;;;;;;5009631;28;20038;-38
2023/01/01 04:29:10;;;;;;;8.60;3.17;;;13.70;99.90;;;;;;5005786;28;20495;-38
2023/01/01 04:31:37;;;;;;;5.43;2.75;;;13.70;99.90;;;;;;4996246;28;20045;-39
2023/01/01 04:34:03;;;;;;;8.77;2.70;;;13.60;99.90;;;;;;5022551;28;20491;-38
2023/01/01 04:36:29;;;;;;;6.05;2.58;;;13.70;99.90;;;;;;5008240;28;20530;-40
2023/01/01 04:38:54;;;;;;;7.43;2.70;;;13.60;99.90;;;;;;5005058;28;20399;-38
2023/01/01 04:41:20;;;;;;;6.32;3.17;;;13.70;99.90;;;;;;5009026;28;20395;-38
2023/01/01 04:43:50;;;;;;;7.15;2.35;;;13.70;99.90;;;;;;5002638;28;20064;-38
2023/01/01 04:46:19;;;;;;;6.72;2.85;;;13.60;99.90;;;;;;4997256;28;20038;-39
2023/01/01 04:48:46;;;;;;;7.65;2.80;;;13.70;99.90;;;;;;4989577;28;20096;-39
2023/01/01 04:51:13;;;;;;;7.40;2.55;;;13.70;99.90;;;;;;5012272;28;20046;-39
2023/01/01 04:53:39;;;;;;;6.25;2.15;;;13.70;99.90;;;;;;5009563;28;20033;-38
2023/01/01 04:56:10;;;;;;;9.77;2.35;;;13.80;99.90;;;;;;5009577;28;20073;-39
2023/01/01 04:58:38;;;;;;;8.13;2.63;;;13.90;99.90;;;;;;5010643;28;20038;-39
2023/01/01 05:01:04;;;;;;;7.55;2.33;;;13.80;99.90;;;;;;5006926;28;20042;-39
2023/01/01 05:03:30;;;;;;;6.75;2.75;;;13.80;99.90;;;;;;4992028;28;20048;-39
2023/01/01 05:06:05;;;;;;;6.93;2.50;;;13.80;99.90;;;;;;5012452;28;20037;-38
2023/01/01 05:08:36;;;;;;;5.45;2.40;;;13.70;99.90;;;;;;5012020;28;20041;-38
2023/01/01 05:11:12;;;;;;;6.28;2.22;;;13.70;99.90;;;;;;5001238;28;20103;-38
2023/01/01 05:13:40;;;;;;;4.68;1.70;;;13.70;99.90;;;;;;5004105;28;20034;-39
2023/01/01 05:16:07;;;;;;;7.80;2.47;;;13.80;99.90;;;;;;5026016;28;20045;-38
2023/01/01 05:18:34;;;;;;;7.45;2.20;;;13.70;99.90;;;;;;5017059;28;20108;-39
2023/01/01 05:21:01;;;;;;;6.60;2.10;;;13.70;99.90;;;;;;5016615;28;20503;-39
2023/01/01 05:23:28;;;;;;;5.97;1.83;;;13.70;99.90;;;;;;5007501;28;20053;-38
2023/01/01 05:25:54;;;;;;;6.38;2.08;;;13.60;99.90;;;;;;5008998;28;20074;-39
2023/01/01 05:28:20;;;;;;;4.63;2.00;;;13.50;99.90;;;;;;4996773;28;20527;-39
2023/01/01 05:30:46;;;;;;;4.80;2.05;;;13.50;99.90;;;;;;5014564;28;20123;-39
2023/01/01 05:33:12;;;;;;;3.10;1.58;;;13.40;99.90;;;;;;5015744;28;20065;-39
2023/01/01 05:35:38;;;;;;;4.88;1.25;;;13.40;99.90;;;;;;5011271;28;20042;-39
2023/01/01 05:38:03;;;;;;;3.88;1.40;;;13.40;99.90;;;;;;5016635;28;20037;-39
2023/01/01 05:40:29;;;;;;;3.95;1.42;;;13.40;99.90;;;;;;5027111;28;20495;-39
2023/01/01 05:42:55;;;;;;;1.25;1.00;;;13.30;99.90;;;;;;5030421;28;20171;-39
2023/01/01 05:45:21;;;;;;;5.85;1.08;;;13.30;99.90;;;;;;5012801;28;20116;-39
2023/01/01 05:47:47;;;;;;;2.42;1.10;;;13.40;99.90;;;;;;5012343;28;20038;-39
2023/01/01 05:50:13;;;;;;;3.20;1.20;;;13.30;99.90;;;;;;5022777;28;20041;-39
2023/01/01 05:52:38;;;;;;;3.00;1.70;;;13.30;99.90;;;;;;5014864;28;20082;-39
2023/01/01 05:55:05;;;;;;;4.85;1.50;;;13.30;99.90;;;;;;5010439;28;20042;-39
2023/01/01 05:57:31;;;;;;;2.17;1.15;;;13.30;99.90;;;;;;5009208;28;20041;-39
2023/01/01 05:59:56;;;;;;;4.85;1.30;;;13.30;99.90;;;;;;5014929;28;20458;-39
2023/01/01 06:02:22;;;;;;;5.03;1.30;;;13.20;99.90;;;;;;5017061;28;20514;-39
2023/01/01 06:04:48;;;;;;;2.08;1.30;;;13.20;99.90;;;;;;5022705;28;20042;-38
2023/01/01 06:07:14;;;;;;;4.78;1.20;;;13.10;99.90;;;;;;5016594;28;20041;-38
2023/01/01 06:09:40;;;;;;;4.15;1.42;;;13.10;99.90;;;;;;5012285;28;20446;-38
2023/01/01 06:12:06;;;;;;;3.75;1.42;;;13.00;99.90;;;;;;5018745;28;20149;-38
2023/01/01 06:14:32;;;;;;;3.30;1.13;;;13.00;99.90;;;;;;5031690;28;20034;-39
2023/01/01 06:16:58;;;;;;;3.78;1.17;;;12.90;99.90;;;;;;5014187;28;20037;-38
2023/01/01 06:19:23;;;;;;;4.95;1.20;;;13.00;99.90;;;;;;5023712;28;20037;-39
2023/01/01 06:21:49;;;;;;;2.63;1.20;;;13.00;99.90;;;;;;5012337;28;20045;-39
2023/01/01 06:24:15;;;;;;;3.15;1.30;;;12.90;99.90;;;;;;5018472;28;20046;-39
2023/01/01 06:26:41;;;;;;;2.75;1.30;;;12.90;99.90;;;;;;5033002;28;20107;-39
2023/01/01 06:29:06;;;;;;;5.20;1.30;;;12.90;99.90;;;;;;5011694;28;20115;-39
2023/01/01 06:31:32;;;;;;;2.05;1.20;;;12.80;99.90;;;;;;5004493;28;20042;-37
2023/01/01 06:33:58;;;;;;;4.88;1.40;;;12.80;99.90;;;;;;5006746;28;20042;-37
2023/01/01 06:36:24;;;;;;;2.95;1.33;;;12.70;99.90;;;;;;5012799;28;20169;-37
2023/01/01 06:38:54;;;;;;;5.28;1.50;;;12.70;99.90;;;;;;5004292;28;20038;-37
2023/01/01 06:41:22;;;;;;;6.40;1.20;;;12.80;99.90;;;;;;5002454;28;20046;-37
2023/01/01 06:43:47;;;;;;;4.45;1.50;;;12.80;99.90;;;;;;5001700;28;20420;-37
2023/01/01 06:46:16;;;;;;;4.15;1.50;;;12.80;99.90;;;;;;4997933;28;20041;-37
2023/01/01 06:48:42;;;;;;;6.15;1.60;;;12.80;99.90;;;;;;5012630;28;20496;-37
2023/01/01 06:51:16;;;;;;;7.35;1.45;;;12.70;99.90;;;;;;5009806;28;20044;-37
2023/01/01 06:53:42;;;;;;;6.85;1.50;;;12.70;99.90;;;;;;5010632;28;20077;-37
2023/01/01 06:56:09;;;;;;;5.35;1.40;;;12.70;99.90;;;;;;4997680;28;20070;-37
2023/01/01 06:58:35;;;;;;;4.60;1.40;;;12.60;99.90;;;;;;5006996;28;20549;-37
2023/01/01 07:01:11;;;;;;;2.85;1.30;;;12.60;99.90;;;;;;5015009;28;20046;-37
2023/01/01 07:03:38;;;;;;;6.00;1.83;;;12.50;99.90;;;;;;5022416;28;20439;-38
2023/01/01 07:06:05;;;;;;;6.00;1.83;;;12.50;99.90;;;;;;4995020;28;20380;-38
2023/01/01 07:08:30;;;;;;;4.53;1.45;;;12.50;99.90;;;;;;5014129;28;20036;-38
2023/01/01 07:10:57;;;;;;;6.18;1.38;;;12.50;99.90;;;;;;5012882;28;20121;-37
2023/01/01 07:13:27;;;;;;;5.20;1.92;;;12.50;99.90;;;;;;4995446;28;20133;-37
2023/01/01 07:15:53;;;;;;;5.53;1.48;;;12.60;99.90;;;;;;5023059;28;20483;-37
2023/01/01 07:18:20;;;;;;;4.88;1.83;;;12.50;99.90;;;;;;5019510;28;20073;-37
2023/01/01 07:20:55;;;;;;;5.05;1.70;;;12.50;99.90;;;;;;4990215;28;20386;-37
2023/01/01 07:23:21;;;;;;;8.02;1.75;;;12.50;99.90;;;;;;5012157;28;20546;-37
2023/01/01 07:25:51;;;;;;;4.13;1.40;;;12.50;99.90;;;;;;5011047;28;20038;-38
2023/01/01 07:28:18;;;;;;;5.32;1.60;;;12.50;99.90;;;;;;5012697;28;20034;-38
2023/01/01 07:30:44;;;;;;;5.10;1.27;;;12.40;99.90;;;;;;5004365;28;20042;-37
2023/01/01 07:33:15;;;;;;;5.30;1.40;;;12.40;99.90;;;;;;4998322;28;20068;-37
2023/01/01 07:35:45;;;;;;;11.27;1.67;;;12.40;99.90;;;;;;4996259;28;20088;-37
2023/01/01 07:38:15;;;;;;;4.05;1.48;;;12.30;99.90;;;;;;5020726;28;20034;-38
2023/01/01 07:40:41;;;;;;;4.80;1.60;;;12.30;99.90;;;;;;5013922;28;20091;-36
2023/01/01 07:43:07;;;;;;;7.95;1.63;;;12.30;99.90;;;;;;5010991;28;20080;-39
2023/01/01 07:45:33;;;;;;;4.15;1.83;;;12.30;99.90;;;;;;5010080;28;20141;-39
2023/01/01 07:47:59;;;;;;;3.88;1.50;;;12.30;99.90;;;;;;5004199;28;20499;-40
2023/01/01 07:50:28;;;;;;;4.18;1.20;;;12.30;99.90;;;;;;5005491;28;20495;-39
2023/01/01 07:52:54;;;;;;;7.03;1.50;;;12.40;99.90;;;;;;5012360;28;20091;-39
2023/01/01 07:55:20;;;;;;;4.93;1.42;;;12.30;99.90;;;;;;5006899;28;20034;-39
2023/01/01 07:57:47;;;;;;;5.13;1.63;;;12.30;99.90;;;;;;5010719;28;20043;-39
2023/01/01 08:00:16;;;;;;;6.22;1.60;;;12.30;99.90;;;;;;4997555;28;20427;-39
2023/01/01 08:02:42;;;;;;;6.18;1.50;;;12.30;99.90;;;;;;5002642;28;20035;-38
2023/01/01 08:05:08;;;;;;;5.70;1.67;;;12.20;99.90;;;;;;4997393;28;20061;-38
2023/01/01 08:07:34;;;;;;;5.35;1.52;;;12.20;99.90;;;;;;4999513;28;20076;-39
2023/01/01 08:10:00;;;;;;;3.60;1.42;;;12.20;99.90;;;;;;5008040;28;20069;-39
2023/01/01 08:12:26;;;;;;;6.05;1.92;;;12.20;99.90;;;;;;5001072;28;20038;-39
2023/01/01 08:14:51;;;;;;;10.52;2.10;;;12.20;99.90;;;;;;5017554;28;20075;-39
2023/01/01 08:17:17;;;;;;;6.88;1.60;;;12.20;99.90;;;;;;5008685;28;20042;-39
2023/01/01 08:19:48;;;;;;;7.35;1.65;;;12.20;99.90;;;;;;5012930;28;20034;-39
2023/01/01 08:22:14;;;;;;;3.97;1.73;;;12.30;99.90;;;;;;5011092;28;20116;-39
2023/01/01 08:24:40;;;;;;;7.53;1.73;;;12.30;99.90;;;;;;5000314;28;20092;-38
2023/01/01 08:27:06;;;;;;;4.63;1.98;;;12.20;99.90;;;;;;5008760;28;20523;-38
2023/01/01 08:29:32;;;;;;;6.13;1.75;;;12.10;99.90;;;;;;5003403;28;20099;-40
2023/01/01 08:31:58;;;;;;;5.15;1.90;;;12.10;99.90;;;;;;5010501;28;20120;-38
2023/01/01 08:34:23;;;;;;;10.32;2.75;;;12.10;99.90;;;;;;5003871;28;20046;-38
2023/01/01 08:36:50;;;;;;;9.52;2.55;;;12.10;99.90;;;;;;5004587;28;20046;-39
2023/01/01 08:39:15;;;;;;;8.20;2.53;;;12.00;99.90;;;;;;5004643;28;20168;-38
2023/01/01 08:41:41;;;;;;;6.05;1.80;;;12.00;99.90;;;;;;4990860;28;20112;-39
2023/01/01 08:44:07;;;;;;;5.00;1.63;;;12.00;99.90;;;;;;5006882;28;20049;-38
2023/01/01 08:46:32;;;;;;;6.63;2.05;;;11.90;99.90;;;;;;5006127;28;20035;-38
2023/01/01 08:48:58;;;;;;;5.15;1.17;;;11.90;99.90;;;;;;5008679;28;20410;-38
2023/01/01 08:51:24;;;;;;;6.88;1.67;;;11.90;99.90;;;;;;4998794;28;20038;-39
2023/01/01 08:53:49;;;;;;;7.78;1.23;;;11.90;99.90;;;;;;5010967;28;20038;-38
2023/01/01 08:56:15;;;;;;;5.60;1.45;;;11.90;99.90;;;;;;4989856;28;20504;-38
2023/01/01 08:58:42;;;;;;;6.47;1.90;;;11.90;99.90;;;;;;5020088;28;20036;-39
2023/01/01 09:01:09;;;;;;;6.72;1.67;;;11.90;99.90;;;;;;4997203;28;20720;-41
2023/01/01 09:03:35;;;;;;;6.53;1.70;;;11.90;99.90;;;;;;5002127;28;20044;-39
2023/01/01 09:06:00;;;;;;;6.80;1.77;;;11.90;99.90;;;;;;4997718;28;20030;-39
2023/01/01 09:08:26;;;;;;;8.52;1.88;;;12.00;99.90;;;;;;5001734;28;20034;-38
2023/01/01 09:10:56;;;;;;;6.30;1.98;;;11.90;99.90;;;;;;5000532;28;20045;-39
2023/01/01 09:13:22;;;;;;;9.70;1.77;;;12.00;99.90;;;;;;5005274;28;20038;-39
2023/01/01 09:15:48;;;;;;;9.23;2.33;;;11.90;99.90;;;;;;4999185;28;20420;-39
2023/01/01 09:18:14;;;;;;;8.32;1.70;;;11.90;99.90;;;;;;5008937;28;20034;-39
2023/01/01 09:20:39;;;;;;;5.07;1.77;;;11.90;99.90;;;;;;5000714;28;20038;-39
2023/01/01 09:23:06;;;;;;;6.50;1.55;;;12.00;99.90;;;;;;5004673;28;20041;-39
2023/01/01 09:25:34;;;;;;;9.20;2.28;;;12.00;99.90;;;;;;5011504;28;20096;-39
2023/01/01 09:28:02;;;;;;;6.75;1.98;;;12.00;99.90;;;;;;5000062;28;20046;-39
2023/01/01 09:30:28;;;;;;;7.63;1.80;;;12.00;99.90;;;;;;5019931;28;20042;-39
2023/01/01 09:32:53;;;;;;;8.52;1.73;;;12.10;99.90;;;;;;5007808;28;20049;-40
2023/01/01 09:35:19;;;;;;;5.90;1.23;;;12.10;99.90;;;;;;5009203;28;20046;-39
2023/01/01 09:37:48;;;;;;;9.60;2.47;;;12.20;99.90;;;;;;4998801;28;20062;-39
2023/01/01 09:40:58;;;;;;;11.23;1.67;;;12.30;99.90;;;;;;5006871;28;20117;-39
2023/01/01 09:43:42;;;;;;;5.93;1.70;;;12.30;99.90;;;;;;5002479;28;20503;-39
2023/01/01 09:46:10;;;;;;;9.80;2.05;;;12.40;99.90;;;;;;5025689;28;20042;-39
2023/01/01 09:48:39;;;;;;;6.82;1.73;;;12.50;99.90;;;;;;5005106;28;20037;-40
2023/01/01 09:51:12;;;;;;;5.50;1.52;;;12.60;99.90;;;;;;4997575;28;20256;-40
2023/01/01 09:53:58;;;;;;;9.70;2.00;;;12.80;99.90;;;;;;5007410;28;20066;-39
2023/01/01 09:56:29;;;;;;;4.72;1.50;;;13.00;99.90;;;;;;5025534;28;20056;-40
2023/01/01 09:58:58;;;;;;;4.78;1.63;;;13.30;99.90;;;;;;5013278;28;20042;-40
2023/01/01 10:01:39;;;;;;;6.00;1.83;;;13.50;99.90;;;;;;5013037;28;20037;-39
2023/01/01 10:04:45;;;;;;;5.60;2.08;;;13.60;99.90;;;;;;5008071;28;20069;-40
2023/01/01 10:07:16;;;;;;;5.53;2.03;;;13.80;99.90;;;;;;5015151;28;20441;-40
2023/01/01 10:09:58;;;;;;;7.95;1.80;;;13.90;99.90;;;;;;5008251;28;20073;-40
2023/01/01 10:12:47;;;;;;;4.90;1.58;;;13.80;99.90;;;;;;5029710;28;20097;-39
2023/01/01 10:15:28;;;;;;;7.50;1.58;;;13.60;99.90;;;;;;5006780;28;20049;-40
2023/01/01 10:17:59;;;;;;;5.97;1.67;;;13.30;99.90;;;;;;5015639;28;20050;-40
2023/01/01 10:20:54;;;;;;;4.70;1.70;;;13.10;99.90;;;;;;5011278;28;20038;-40
2023/01/01 10:23:27;;;;;;;5.75;1.42;;;12.80;99.90;;;;;;4996872;28;20054;-40
2023/01/01 10:25:56;;;;;;;7.65;1.80;;;12.70;99.90;;;;;;5012549;28;20052;-40
2023/01/01 10:28:32;;;;;;;7.22;1.75;;;12.70;99.90;;;;;;5016268;28;20071;-44
2023/01/01 10:31:34;;;;;;;8.30;1.55;;;12.60;99.90;;;;;;5007646;28;20084;-40
2023/01/01 10:34:15;;;;;;;7.78;2.17;;;12.70;99.90;;;;;;4983216;28;20511;-39
2023/01/01 10:36:42;;;;;;;9.18;2.88;;;12.90;99.90;;;;;;5010724;28;20105;-39
2023/01/01 10:39:16;;;;;;;8.52;2.17;;;13.00;99.90;;;;;;5018458;28;20061;-40
2023/01/01 10:41:43;;;;;;;6.07;2.05;;;13.10;99.90;;;;;;5007609;28;20117;-39
2023/01/01 10:44:15;;;;;;;17.10;5.25;;;13.20;99.90;;;;;;5012490;28;20137;-40
2023/01/01 10:46:52;;;;;;;25.50;10.55;;;13.30;99.90;;;;;;5011427;28;20518;-40
2023/01/01 10:49:17;;;;;;;12.85;3.80;;;13.20;99.90;;;;;;5015096;28;20076;-40
2023/01/01 10:51:49;;;;;;;11.73;4.18;;;13.30;99.90;;;;;;5011584;28;20073;-40
2023/01/01 10:54:38;;;;;;;15.60;6.72;;;13.30;99.90;;;;;;5005345;28;20133;-40
2023/01/01 10:57:31;;;;;;;14.68;5.90;;;13.30;99.90;;;;;;5000582;28;20137;-40
2023/01/01 11:00:11;;;;;;;13.95;6.20;;;13.30;99.90;;;;;;5006557;28;20495;-40
2023/01/01 11:02:37;;;;;;;10.25;3.70;;;13.40;99.90;;;;;;5009821;28;20086;-40
2023/01/01 11:05:18;;;;;;;8.85;4.22;;;13.60;99.90;;;;;;5004083;28;20038;-39
2023/01/01 11:07:44;;;;;;;7.10;2.22;;;13.70;99.90;;;;;;5002243;28;20034;-39
2023/01/01 11:10:22;;;;;;;8.93;2.95;;;13.90;99.90;;;;;;5010992;28;20158;-39
2023/01/01 11:12:49;;;;;;;6.60;1.90;;;14.10;99.90;;;;;;5011461;28;20088;-39
2023/01/01 11:15:36;;;;;;;9.02;2.42;;;14.60;99.90;;;;;;5010354;28;20038;-39
2023/01/01 11:18:05;;;;;;;6.07;1.67;;;15.50;99.90;;;;;;5011823;28;20037;-41
2023/01/01 11:20:32;;;;;;;9.18;2.28;;;16.50;99.90;;;;;;5011095;28;20112;-40
2023/01/01 11:23:15;;;;;;;9.68;2.20;;;16.80;99.90;;;;;;5006212;28;20038;-43
2023/01/01 11:26:15;;;;;;;7.57;1.95;;;16.50;99.90;;;;;;5010118;28;20492;-40
2023/01/01 11:28:41;;;;;;;9.98;2.00;;;16.50;99.90;;;;;;5010582;28;20555;-40
2023/01/01 11:31:16;;;;;;;5.13;2.25;;;16.40;99.90;;;;;;5013963;28;20041;-39
2023/01/01 11:33:47;;;;;;;7.90;2.08;;;15.90;99.90;;;;;;5017826;28;20487;-40
2023/01/01 11:36:23;;;;;;;7.20;3.47;;;15.60;99.90;;;;;;5007567;28;20039;-40
2023/01/01 11:39:11;;;;;;;7.85;5.85;;;15.10;99.90;;;;;;5009706;28;20125;-40
2023/01/01 11:41:49;;;;;;;7.45;2.63;;;14.70;99.90;;;;;;5004352;28;20041;-39
2023/01/01 11:44:46;;;;;;;10.25;3.30;;;14.50;99.90;;;;;;5003453;28;20040;-39
2023/01/01 11:47:39;;;;;;;7.32;2.45;;;14.50;99.90;;;;;;5019143;28;20426;-40
2023/01/01 11:50:21;;;;;;;7.60;2.00;;;14.40;99.90;;;;;;5008394;28;20045;-39
2023/01/01 11:52:49;;;;;;;7.05;1.90;;;14.30;99.90;;;;;;5018995;28;20395;-40
2023/01/01 11:55:41;;;;;;;6.97;2.92;;;14.20;99.90;;;;;;5021073;28;20483;-39
2023/01/01 11:58:34;;;;;;;14.00;2.53;;;14.20;99.90;;;;;;5007450;28;20137;-40
2023/01/01 12:01:16;;;;;;;5.90;2.63;;;14.20;99.90;;;;;;5026074;28;20485;-39
2023/01/01 12:03:48;;;;;;;7.72;2.63;;;14.40;99.90;;;;;;5027337;28;20037;-39
2023/01/01 12:06:19;;;;;;;5.18;2.38;;;14.80;99.90;;;;;;5011568;28;20037;-39
2023/01/01 12:09:08;;;;;;;9.07;3.40;;;15.50;99.90;;;;;;5003416;28;20041;-40
2023/01/01 12:11:40;;;;;;;8.48;3.40;;;16.20;99.90;;;;;;5010691;28;20495;-40
2023/01/01 12:14:39;;;;;;;10.23;2.40;;;16.70;99.90;;;;;;5015429;28;20048;-42
2023/01/01 12:17:22;;;;;;;5.93;2.08;;;16.40;99.90;;;;;;5019409;28;20506;-40
2023/01/01 12:20:06;;;;;;;6.90;2.13;;;15.90;99.90;;;;;;5007439;28;20040;-40
2023/01/01 12:22:32;;;;;;;6.55;2.20;;;15.40;99.90;;;;;;5033814;28;20038;-39
2023/01/01 12:24:59;;;;;;;10.13;3.30;;;14.90;99.90;;;;;;5011181;28;20046;-40
2023/01/01 12:27:49;;;;;;;9.70;2.67;;;14.50;99.90;;;;;;5008386;28;20573;-39
2023/01/01 12:30:19;;;;;;;10.25;3.50;;;14.10;99.90;;;;;;5015799;28;20446;-39
2023/01/01 12:32:58;;;;;;;9.85;3.38;;;13.80;99.90;;;;;;5006258;28;20037;-48
2023/01/01 12:35:33;;;;;;;7.93;2.78;;;13.60;99.90;;;;;;5015811;28;20117;-40
2023/01/01 12:37:59;;;;;;;11.77;3.40;;;13.40;99.90;;;;;;5024288;28;20042;-39
2023/01/01 12:40:38;;;;;;;10.02;3.63;;;13.30;99.90;;;;;;5004575;28;20038;-39
2023/01/01 12:43:15;;;;;;;12.65;3.75;;;13.20;99.90;;;;;;5002853;28;20129;-39
2023/01/01 12:46:00;;;;;;;8.13;3.35;;;13.10;99.90;;;;;;4996165;28;20038;-39
2023/01/01 12:48:59;;;;;;;7.32;2.63;;;13.00;99.90;;;;;;5018424;28;20041;-39
2023/01/01 12:51:46;;;;;;;10.68;2.67;;;12.90;99.90;;;;;;5013042;28;20077;-39
2023/01/01 12:54:33;;;;;;;8.95;3.15;;;12.90;99.90;;;;;;5001945;28;20029;-39
2023/01/01 12:57:11;;;;;;;9.25;3.75;;;12.80;99.90;;;;;;5014038;28;20198;-39
2023/01/01 12:59:40;;;;;;;8.25;3.42;;;12.80;99.90;;;;;;5011619;28;20451;-39
2023/01/01 13:02:17;;;;;;;9.95;4.75;;;12.70;99.90;;;;;;5019547;28;20044;-39
2023/01/01 13:04:46;;;;;;;11.02;4.30;;;12.70;99.90;;;;;;4997401;28;20045;-39
2023/01/01 13:07:13;;;;;;;12.93;4.32;;;12.70;99.90;;;;;;5005750;28;20120;-39
2023/01/01 13:09:44;;;;;;;9.48;3.45;;;12.70;99.90;;;;;;5008737;28;20033;-39
2023/01/01 13:12:23;;;;;;;8.55;3.15;;;12.70;99.90;;;;;;5004325;28;20062;-39